createdAt,value
2023-03-13T00:01:15.578Z,2.00
2023-03-13T00:03:42.342Z,2.09
2023-03-13T00:06:09.123Z,2.09
2023-03-13T00:08:35.598Z,2.14
2023-03-13T00:11:06.882Z,2.14
2023-03-13T00:13:34.007Z,2.16
2023-03-13T00:16:06.274Z,2.16
2023-03-13T00:18:33.030Z,2.23
2023-03-13T00:21:09.902Z,2.25
2023-03-13T00:23:37.992Z,2.32
2023-03-13T00:26:13.612Z,2.24
2023-03-13T00:28:41.684Z,2.29
2023-03-13T00:31:12.314Z,2.32
2023-03-13T00:33:40.926Z,2.38
2023-03-13T00:36:30.698Z,2.41
2023-03-13T00:38:57.905Z,2.41
2023-03-13T00:41:27.142Z,2.36
2023-03-13T00:43:54.121Z,2.35
2023-03-13T00:46:23.692Z,2.28
2023-03-13T00:48:50.608Z,2.39
2023-03-13T00:51:19.613Z,2.43
2023-03-13T00:53:46.914Z,2.42
2023-03-13T00:56:15.425Z,2.42
2023-03-13T00:58:43.638Z,2.32
2023-03-13T01:01:19.235Z,2.25
2023-03-13T01:03:48.756Z,2.48
2023-03-13T01:06:17.668Z,2.41
2023-03-13T01:08:45.359Z,2.47
2023-03-13T01:11:15.181Z,2.28
2023-03-13T01:13:41.881Z,2.28
2023-03-13T01:16:14.279Z,2.30
2023-03-13T01:18:44.315Z,2.35
2023-03-13T01:21:11.677Z,2.32
2023-03-13T01:23:38.158Z,2.36
2023-03-13T01:26:06.273Z,2.37
2023-03-13T01:28:33.681Z,2.28
2023-03-13T01:31:01.363Z,2.27
2023-03-13T01:33:27.852Z,2.34
2023-03-13T01:36:01.801Z,2.33
2023-03-13T01:38:28.298Z,2.32
2023-03-13T01:40:55.198Z,2.41
2023-03-13T01:43:27.732Z,2.39
2023-03-13T01:46:18.403Z,2.36
2023-03-13T01:48:53.508Z,2.52
2023-03-13T01:51:25.916Z,2.52
2023-03-13T01:54:12.211Z,2.51
2023-03-13T01:57:07.697Z,2.55
2023-03-13T01:59:41.922Z,2.51
2023-03-13T02:02:09.148Z,2.51
2023-03-13T02:04:39.758Z,2.57
2023-03-13T02:07:20.280Z,2.48
2023-03-13T02:09:52.102Z,2.61
2023-03-13T02:12:26.274Z,2.65
2023-03-13T02:14:53.648Z,2.60
2023-03-13T02:17:20.321Z,2.63
2023-03-13T02:19:52.048Z,2.56
2023-03-13T02:22:28.895Z,2.54
2023-03-13T02:25:04.127Z,2.70
2023-03-13T02:27:30.724Z,2.59
2023-03-13T02:29:58.250Z,2.67
2023-03-13T02:32:26.814Z,2.67
2023-03-13T02:34:58.343Z,2.67
2023-03-13T02:37:28.618Z,2.75
2023-03-13T02:39:57.265Z,2.71
2023-03-13T02:42:24.692Z,2.73
2023-03-13T02:44:52.155Z,2.78
2023-03-13T02:47:24.504Z,2.76
2023-03-13T02:49:51.129Z,2.82
2023-03-13T02:52:26.188Z,2.84
2023-03-13T02:55:06.650Z,2.82
2023-03-13T02:57:33.987Z,2.99
2023-03-13T03:00:00.461Z,2.84
2023-03-13T03:02:26.922Z,2.91
2023-03-13T03:04:53.392Z,2.95
2023-03-13T03:07:19.797Z,3.05
2023-03-13T03:09:46.220Z,2.98
2023-03-13T03:12:12.699Z,2.99
2023-03-13T03:14:39.460Z,3.08
2023-03-13T03:17:06.001Z,3.07
2023-03-13T03:19:32.442Z,3.05
2023-03-13T03:21:58.874Z,3.10
2023-03-13T03:24:25.415Z,3.13
2023-03-13T03:26:51.846Z,3.11
2023-03-13T03:29:19.026Z,3.19
2023-03-13T03:31:45.573Z,3.23
2023-03-13T03:34:12.177Z,3.17
2023-03-13T03:36:39.917Z,3.22
2023-03-13T03:39:06.424Z,3.23
2023-03-13T03:41:32.917Z,3.17
2023-03-13T03:43:59.450Z,3.18
2023-03-13T03:46:25.966Z,3.23
2023-03-13T03:48:52.447Z,3.23
2023-03-13T03:51:18.888Z,3.29
2023-03-13T03:53:45.301Z,3.38
2023-03-13T03:56:11.798Z,3.32
2023-03-13T03:58:38.295Z,3.28
2023-03-13T04:01:05.125Z,3.35
2023-03-13T04:03:32.005Z,3.25
2023-03-13T04:05:58.485Z,3.26
2023-03-13T04:08:25.232Z,3.27
2023-03-13T04:10:52.192Z,3.33
2023-03-13T04:13:18.695Z,3.36
2023-03-13T04:15:45.409Z,3.33
2023-03-13T04:18:11.915Z,3.30
2023-03-13T04:20:38.353Z,3.24
2023-03-13T04:23:04.909Z,3.31
2023-03-13T04:25:31.490Z,3.28
2023-03-13T04:27:57.952Z,3.18
2023-03-13T04:30:24.396Z,3.28
2023-03-13T04:32:51.201Z,3.23
2023-03-13T04:35:17.794Z,3.32
2023-03-13T04:37:44.273Z,3.31
2023-03-13T04:40:12.641Z,3.28
2023-03-13T04:42:40.318Z,3.32
2023-03-13T04:45:08.063Z,3.35
2023-03-13T04:47:34.524Z,3.34
2023-03-13T04:50:00.922Z,3.31
2023-03-13T04:52:27.380Z,3.36
2023-03-13T04:54:53.856Z,3.37
2023-03-13T04:57:20.268Z,3.27
2023-03-13T04:59:46.848Z,3.26
2023-03-13T05:02:14.001Z,3.30
2023-03-13T05:04:40.567Z,3.31
2023-03-13T05:07:07.180Z,3.31
2023-03-13T05:09:33.641Z,3.24
2023-03-13T05:12:00.179Z,3.25
2023-03-13T05:14:26.701Z,3.29
2023-03-13T05:16:53.137Z,3.29
2023-03-13T05:19:19.700Z,3.45
2023-03-13T05:21:46.118Z,3.43
2023-03-13T05:24:12.571Z,3.37
2023-03-13T05:26:39.093Z,3.38
2023-03-13T05:29:05.544Z,3.33
2023-03-13T05:31:32.082Z,3.41
2023-03-13T05:33:58.616Z,3.38
2023-03-13T05:36:25.088Z,3.30
2023-03-13T05:38:51.700Z,3.36
2023-03-13T05:41:18.183Z,3.53
2023-03-13T05:43:44.636Z,3.46
2023-03-13T05:46:11.126Z,3.53
2023-03-13T05:48:37.650Z,3.44
2023-03-13T05:51:04.340Z,3.40
2023-03-13T05:53:30.776Z,3.43
2023-03-13T05:55:57.284Z,3.47
2023-03-13T05:58:23.989Z,3.37
2023-03-13T06:00:50.442Z,3.38
2023-03-13T06:03:17.117Z,3.45
2023-03-13T06:05:43.549Z,3.46
2023-03-13T06:08:10.062Z,3.47
2023-03-13T06:10:36.557Z,3.42
2023-03-13T06:13:13.905Z,3.53
2023-03-13T06:15:52.852Z,3.59
2023-03-13T06:18:19.327Z,3.61
2023-03-13T06:20:45.894Z,3.72
2023-03-13T06:23:12.395Z,3.68
2023-03-13T06:25:38.946Z,3.66
2023-03-13T06:28:05.383Z,3.66
2023-03-13T06:30:31.902Z,3.68
2023-03-13T06:32:58.871Z,3.69
2023-03-13T06:35:25.629Z,3.67
2023-03-13T06:37:52.151Z,3.73
2023-03-13T06:40:18.737Z,3.65
2023-03-13T06:42:45.148Z,3.69
2023-03-13T06:45:11.756Z,3.69
2023-03-13T06:47:38.233Z,3.63
2023-03-13T06:50:05.016Z,3.70
2023-03-13T06:52:43.016Z,3.79
2023-03-13T06:55:10.825Z,3.63
2023-03-13T06:57:37.435Z,3.72
2023-03-13T07:00:06.100Z,3.72
2023-03-13T07:02:32.745Z,3.66
2023-03-13T07:04:59.287Z,3.74
2023-03-13T07:07:31.718Z,3.76
2023-03-13T07:09:59.017Z,3.75
2023-03-13T07:12:25.605Z,3.80
2023-03-13T07:14:52.168Z,3.84
2023-03-13T07:17:18.706Z,3.73
2023-03-13T07:19:48.397Z,3.86
2023-03-13T07:22:15.026Z,3.81
2023-03-13T07:24:42.538Z,3.87
2023-03-13T07:27:09.413Z,3.94
2023-03-13T07:29:36.088Z,3.94
2023-03-13T07:32:02.801Z,3.98
2023-03-13T07:34:29.897Z,3.93
2023-03-13T07:36:56.638Z,3.92
2023-03-13T07:39:23.642Z,4.00
2023-03-13T07:41:50.569Z,4.02
2023-03-13T07:44:17.305Z,3.97
2023-03-13T07:46:44.316Z,4.15
2023-03-13T07:49:12.204Z,4.14
2023-03-13T07:51:43.829Z,4.19
2023-03-13T07:54:11.660Z,4.19
2023-03-13T07:56:38.772Z,4.26
2023-03-13T07:59:05.526Z,4.10
2023-03-13T08:01:39.954Z,4.02
2023-03-13T08:04:06.507Z,4.11
2023-03-13T08:06:35.780Z,4.09
2023-03-13T08:09:02.714Z,4.07
2023-03-13T08:11:29.957Z,3.95
2023-03-13T08:13:57.645Z,4.04
2023-03-13T08:16:27.278Z,4.04
2023-03-13T08:18:58.689Z,4.11
2023-03-13T08:21:30.369Z,4.06
2023-03-13T08:24:01.487Z,4.03
2023-03-13T08:26:30.386Z,4.07
2023-03-13T08:28:59.442Z,4.08
2023-03-13T08:31:31.410Z,4.08
2023-03-13T08:33:58.476Z,4.12
2023-03-13T08:36:43.163Z,4.19
2023-03-13T08:39:13.982Z,4.08
2023-03-13T08:41:41.589Z,4.14
2023-03-13T08:44:11.344Z,4.21
2023-03-13T08:46:38.354Z,4.27
2023-03-13T08:49:07.271Z,4.28
2023-03-13T08:51:34.462Z,4.37
2023-03-13T08:54:02.353Z,4.31
2023-03-13T08:56:30.584Z,4.39
2023-03-13T08:58:59.906Z,4.53
2023-03-13T09:01:29.761Z,4.55
2023-03-13T09:03:57.857Z,4.43
2023-03-13T09:06:24.661Z,4.59
2023-03-13T09:08:51.178Z,4.69
2023-03-13T09:11:20.987Z,4.63
2023-03-13T09:13:50.497Z,4.67
2023-03-13T09:16:20.216Z,4.66
2023-03-13T09:18:47.159Z,4.75
2023-03-13T09:21:18.381Z,4.80
2023-03-13T09:23:45.323Z,4.85
2023-03-13T09:26:15.067Z,4.91
2023-03-13T09:28:45.910Z,4.93
2023-03-13T09:31:15.445Z,4.95
2023-03-13T09:33:43.413Z,4.90
2023-03-13T09:36:10.938Z,4.86
2023-03-13T09:38:38.316Z,5.05
2023-03-13T09:41:20.018Z,4.98
2023-03-13T09:43:55.375Z,5.07
2023-03-13T09:46:48.381Z,5.04
2023-03-13T09:49:51.310Z,5.17
2023-03-13T09:52:49.913Z,5.18
2023-03-13T09:55:34.735Z,5.32
2023-03-13T09:58:13.594Z,5.38
2023-03-13T10:00:43.187Z,5.38
2023-03-13T10:03:26.396Z,5.41
2023-03-13T10:05:57.376Z,5.50
2023-03-13T10:08:26.548Z,5.49
2023-03-13T10:11:02.099Z,5.58
2023-03-13T10:13:56.883Z,5.48
2023-03-13T10:16:38.951Z,5.62
2023-03-13T10:19:14.441Z,5.65
2023-03-13T10:21:43.426Z,5.67
2023-03-13T10:24:34.927Z,5.75
2023-03-13T10:27:01.550Z,5.85
2023-03-13T10:29:30.669Z,5.96
2023-03-13T10:32:05.803Z,6.07
2023-03-13T10:34:52.644Z,6.04
2023-03-13T10:37:30.020Z,6.10
2023-03-13T10:40:23.197Z,6.20
2023-03-13T10:42:52.093Z,6.28
2023-03-13T10:45:25.256Z,6.24
2023-03-13T10:47:56.860Z,6.39
2023-03-13T10:50:26.543Z,6.47
2023-03-13T10:52:54.856Z,6.63
2023-03-13T10:55:24.512Z,6.71
2023-03-13T10:58:05.762Z,6.85
2023-03-13T11:00:42.576Z,6.92
2023-03-13T11:03:20.006Z,7.10
2023-03-13T11:05:58.556Z,7.11
2023-03-13T11:08:27.663Z,7.09
2023-03-13T11:10:57.630Z,7.24
2023-03-13T11:13:38.260Z,7.39
2023-03-13T11:16:19.456Z,7.47
2023-03-13T11:19:02.337Z,7.61
2023-03-13T11:21:39.470Z,7.54
2023-03-13T11:24:16.215Z,7.62
2023-03-13T11:27:04.275Z,7.89
2023-03-13T11:29:48.547Z,8.03
2023-03-13T11:32:24.696Z,8.03
2023-03-13T11:34:57.253Z,8.08
2023-03-13T11:37:26.824Z,8.16
2023-03-13T11:39:56.747Z,8.02
2023-03-13T11:42:39.496Z,8.17
2023-03-13T11:45:46.792Z,8.30
2023-03-13T11:48:25.640Z,8.26
2023-03-13T11:51:01.139Z,8.21
2023-03-13T11:53:40.856Z,8.12
2023-03-13T11:56:35.607Z,8.29
2023-03-13T11:59:07.867Z,8.32
2023-03-13T12:01:46.607Z,8.39
2023-03-13T12:04:29.042Z,8.27
2023-03-13T12:06:59.150Z,8.26
2023-03-13T12:09:28.580Z,8.49
2023-03-13T12:12:03.670Z,8.95
2023-03-13T12:14:53.064Z,8.79
2023-03-13T12:17:35.065Z,8.89
2023-03-13T12:20:24.092Z,9.17
2023-03-13T12:23:20.525Z,9.35
2023-03-13T12:26:04.838Z,9.38
2023-03-13T12:28:52.687Z,9.41
2023-03-13T12:31:28.898Z,9.78
2023-03-13T12:34:09.764Z,10.54
2023-03-13T12:36:42.892Z,10.14
2023-03-13T12:39:24.461Z,10.29
2023-03-13T12:42:12.018Z,10.15
2023-03-13T12:44:39.976Z,10.23
2023-03-13T12:47:34.227Z,10.62
2023-03-13T12:50:19.805Z,10.73
2023-03-13T12:52:46.223Z,11.18
2023-03-13T12:55:40.148Z,11.94
2023-03-13T12:58:22.939Z,12.64
2023-03-13T13:00:51.010Z,13.53
2023-03-13T13:03:35.713Z,13.26
2023-03-13T13:06:04.920Z,13.25
2023-03-13T13:08:36.170Z,12.80
2023-03-13T13:11:33.840Z,12.28
2023-03-13T13:14:25.893Z,12.33
2023-03-13T13:17:21.273Z,12.22
2023-03-13T13:19:48.038Z,11.71
2023-03-13T13:22:38.811Z,11.54
2023-03-13T13:25:11.693Z,11.11
2023-03-13T13:27:38.079Z,11.15
2023-03-13T13:30:27.652Z,11.14
2023-03-13T13:32:55.768Z,11.17
2023-03-13T13:35:30.216Z,10.92
2023-03-13T13:38:18.489Z,11.11
2023-03-13T13:41:14.376Z,10.97
2023-03-13T13:43:40.738Z,10.98
2023-03-13T13:46:31.421Z,11.11
2023-03-13T13:49:07.476Z,10.93
2023-03-13T13:51:38.602Z,10.87
2023-03-13T13:54:30.032Z,10.91
2023-03-13T13:56:59.190Z,10.94
2023-03-13T13:59:31.679Z,10.96
2023-03-13T14:02:04.150Z,11.11
2023-03-13T14:04:55.992Z,11.04
2023-03-13T14:07:37.203Z,11.22
2023-03-13T14:10:19.519Z,11.28
2023-03-13T14:12:57.905Z,11.23
2023-03-13T14:15:34.598Z,11.22
2023-03-13T14:18:16.302Z,11.27
2023-03-13T14:20:58.984Z,11.20
2023-03-13T14:23:31.120Z,11.12
2023-03-13T14:25:57.649Z,11.22
2023-03-13T14:28:27.540Z,11.36
2023-03-13T14:30:57.018Z,11.26
2023-03-13T14:33:26.762Z,11.04
2023-03-13T14:35:54.073Z,11.11
2023-03-13T14:38:26.309Z,11.07
2023-03-13T14:40:55.389Z,11.03
2023-03-13T14:43:24.922Z,11.12
2023-03-13T14:45:51.915Z,11.06
2023-03-13T14:48:32.394Z,11.05
2023-03-13T14:51:20.006Z,11.01
2023-03-13T14:54:00.814Z,10.91
2023-03-13T14:56:43.020Z,10.95
2023-03-13T14:59:24.271Z,10.99
2023-03-13T15:02:23.154Z,11.02
2023-03-13T15:04:59.833Z,11.14
2023-03-13T15:07:41.782Z,11.09
2023-03-13T15:10:26.819Z,11.25
2023-03-13T15:12:53.419Z,11.29
2023-03-13T15:15:20.057Z,11.30
2023-03-13T15:17:46.649Z,11.27
2023-03-13T15:20:14.569Z,11.11
2023-03-13T15:22:44.270Z,11.27
2023-03-13T15:25:23.149Z,11.27
2023-03-13T15:27:50.583Z,11.22
2023-03-13T15:30:19.630Z,11.27
2023-03-13T15:32:47.022Z,11.26
2023-03-13T15:35:22.036Z,11.25
2023-03-13T15:37:48.518Z,11.07
2023-03-13T15:40:16.817Z,11.10
2023-03-13T15:42:43.399Z,11.09
2023-03-13T15:45:10.224Z,10.93
2023-03-13T15:47:36.727Z,10.96
2023-03-13T15:50:04.403Z,10.87
2023-03-13T15:52:31.486Z,10.90
2023-03-13T15:54:57.922Z,10.85
2023-03-13T15:57:26.258Z,10.92
2023-03-13T15:59:54.126Z,11.04
2023-03-13T16:02:23.181Z,11.09
2023-03-13T16:04:50.964Z,10.97
2023-03-13T16:07:21.552Z,10.99
2023-03-13T16:09:49.003Z,10.91
2023-03-13T16:12:15.428Z,10.84
2023-03-13T16:14:42.230Z,10.92
2023-03-13T16:17:17.170Z,10.94
2023-03-13T16:19:44.919Z,10.62
2023-03-13T16:22:12.045Z,10.68
2023-03-13T16:24:39.454Z,10.67
2023-03-13T16:27:13.869Z,10.69
2023-03-13T16:29:40.490Z,10.55
2023-03-13T16:32:06.973Z,10.61
2023-03-13T16:34:33.434Z,10.69
2023-03-13T16:36:59.946Z,10.50
2023-03-13T16:39:26.622Z,10.61
2023-03-13T16:41:53.161Z,10.53
2023-03-13T16:44:19.656Z,10.63
2023-03-13T16:46:59.215Z,10.55
2023-03-13T16:49:31.105Z,10.49
2023-03-13T16:51:57.554Z,10.52
2023-03-13T16:54:24.010Z,10.53
2023-03-13T16:56:50.536Z,10.52
2023-03-13T16:59:18.173Z,10.54
2023-03-13T17:01:46.972Z,10.41
2023-03-13T17:04:13.891Z,10.49
2023-03-13T17:06:42.607Z,10.55
2023-03-13T17:09:15.572Z,10.53
2023-03-13T17:11:42.623Z,10.51
2023-03-13T17:14:09.414Z,10.35
2023-03-13T17:16:39.604Z,10.47
2023-03-13T17:19:08.943Z,10.27
2023-03-13T17:21:36.678Z,10.31
2023-03-13T17:24:03.371Z,10.35
2023-03-13T17:26:33.554Z,10.19
2023-03-13T17:29:00.525Z,10.25
2023-03-13T17:31:28.334Z,10.24
2023-03-13T17:33:54.929Z,10.29
2023-03-13T17:36:27.242Z,10.32
2023-03-13T17:38:59.264Z,10.22
2023-03-13T17:41:28.239Z,10.16
2023-03-13T17:43:55.208Z,10.18
2023-03-13T17:46:30.831Z,10.23
2023-03-13T17:48:57.333Z,10.24
2023-03-13T17:51:26.770Z,10.14
2023-03-13T17:53:55.015Z,10.08
2023-03-13T17:56:27.172Z,10.10
2023-03-13T17:58:57.693Z,10.14
2023-03-13T18:01:26.452Z,10.09
2023-03-13T18:03:53.003Z,10.11
2023-03-13T18:06:29.458Z,10.13
2023-03-13T18:08:58.240Z,10.17
2023-03-13T18:11:26.436Z,10.04
2023-03-13T18:13:53.228Z,10.09
2023-03-13T18:16:24.711Z,10.07
2023-03-13T18:18:52.137Z,9.98
2023-03-13T18:21:20.195Z,10.05
2023-03-13T18:23:46.676Z,10.08
2023-03-13T18:26:25.263Z,10.09
2023-03-13T18:28:52.564Z,10.04
2023-03-13T18:31:19.178Z,10.02
2023-03-13T18:33:47.660Z,10.13
2023-03-13T18:36:19.564Z,10.06
2023-03-13T18:38:47.732Z,10.12
2023-03-13T18:41:15.538Z,10.06
2023-03-13T18:43:43.438Z,10.09
2023-03-13T18:46:26.589Z,10.06
2023-03-13T18:48:53.725Z,10.08
2023-03-13T18:51:24.210Z,10.11
2023-03-13T18:53:52.202Z,9.98
2023-03-13T18:56:28.024Z,9.98
2023-03-13T18:58:55.839Z,9.97
2023-03-13T19:01:25.094Z,9.99
2023-03-13T19:03:52.156Z,10.00
2023-03-13T19:06:33.871Z,9.99
2023-03-13T19:09:42.207Z,10.09
2023-03-13T19:12:08.350Z,10.08
2023-03-13T19:14:34.883Z,10.02
2023-03-13T19:17:01.653Z,10.08
2023-03-13T19:19:28.741Z,10.03
2023-03-13T19:21:56.273Z,10.02
2023-03-13T19:24:26.451Z,10.04
2023-03-13T19:26:58.340Z,10.03
2023-03-13T19:29:27.788Z,10.10
2023-03-13T19:31:54.877Z,10.07
2023-03-13T19:34:21.997Z,10.04
2023-03-13T19:36:49.361Z,9.99
2023-03-13T19:39:24.084Z,10.04
2023-03-13T19:41:51.617Z,10.14
2023-03-13T19:44:19.949Z,10.03
2023-03-13T19:46:46.836Z,10.07
2023-03-13T19:49:16.082Z,10.08
2023-03-13T19:51:42.980Z,9.88
2023-03-13T19:54:10.778Z,9.95
2023-03-13T19:56:39.331Z,9.99
2023-03-13T19:59:24.245Z,9.95
2023-03-13T20:01:50.837Z,9.94
2023-03-13T20:04:17.453Z,9.88
2023-03-13T20:06:45.381Z,9.84
2023-03-13T20:09:17.375Z,9.84
2023-03-13T20:11:44.575Z,9.73
2023-03-13T20:14:11.391Z,9.76
2023-03-13T20:16:38.628Z,9.83
2023-03-13T20:19:05.280Z,9.69
2023-03-13T20:21:34.665Z,9.66
2023-03-13T20:24:01.469Z,9.71
2023-03-13T20:26:29.301Z,9.64
2023-03-13T20:28:56.945Z,9.59
2023-03-13T20:31:26.270Z,9.63
2023-03-13T20:33:52.769Z,9.57
2023-03-13T20:36:20.709Z,9.53
2023-03-13T20:38:47.607Z,9.59
2023-03-13T20:41:16.121Z,9.55
2023-03-13T20:43:42.908Z,9.61
2023-03-13T20:46:09.642Z,9.51
2023-03-13T20:48:39.142Z,9.49
2023-03-13T20:51:07.547Z,9.43
2023-03-13T20:53:38.909Z,9.45
2023-03-13T20:56:07.271Z,9.48
2023-03-13T20:58:37.636Z,9.46
2023-03-13T21:01:06.336Z,9.50
2023-03-13T21:03:35.361Z,9.45
2023-03-13T21:06:11.961Z,9.48
2023-03-13T21:08:39.023Z,9.49
2023-03-13T21:11:15.585Z,9.54
2023-03-13T21:13:42.072Z,9.51
2023-03-13T21:16:08.836Z,9.50
2023-03-13T21:18:35.441Z,9.54
2023-03-13T21:21:07.044Z,9.56
2023-03-13T21:23:33.642Z,9.61
2023-03-13T21:26:00.601Z,9.53
2023-03-13T21:28:28.026Z,9.47
2023-03-13T21:30:55.207Z,9.44
2023-03-13T21:33:21.968Z,9.31
2023-03-13T21:35:49.734Z,9.34
2023-03-13T21:38:16.695Z,9.37
2023-03-13T21:40:43.323Z,9.46
2023-03-13T21:43:09.824Z,9.40
2023-03-13T21:45:36.539Z,9.34
2023-03-13T21:48:03.090Z,9.33
2023-03-13T21:50:29.628Z,9.41
2023-03-13T21:52:56.032Z,9.29
2023-03-13T21:55:22.475Z,9.30
2023-03-13T21:57:48.990Z,9.26
2023-03-13T22:00:15.991Z,9.25
2023-03-13T22:02:44.196Z,9.24
2023-03-13T22:05:10.889Z,9.29
2023-03-13T22:07:37.319Z,9.22
2023-03-13T22:10:04.567Z,9.23
2023-03-13T22:12:31.045Z,9.16
2023-03-13T22:14:57.915Z,9.20
2023-03-13T22:17:24.706Z,9.15
2023-03-13T22:19:51.220Z,9.10
2023-03-13T22:22:19.904Z,9.24
2023-03-13T22:24:46.645Z,9.10
2023-03-13T22:27:13.551Z,9.15
2023-03-13T22:29:40.029Z,9.13
2023-03-13T22:32:06.588Z,9.17
2023-03-13T22:34:33.127Z,9.12
2023-03-13T22:36:59.603Z,9.14
2023-03-13T22:39:26.090Z,9.15
2023-03-13T22:41:52.679Z,9.16
2023-03-13T22:44:19.403Z,9.02
2023-03-13T22:46:45.839Z,9.11
2023-03-13T22:49:12.298Z,9.13
2023-03-13T22:51:38.756Z,9.15
2023-03-13T22:54:05.323Z,9.12
2023-03-13T22:56:31.956Z,8.99
2023-03-13T22:58:58.456Z,9.06
2023-03-13T23:01:26.452Z,8.99
2023-03-13T23:03:52.977Z,8.92
2023-03-13T23:06:23.007Z,8.99
2023-03-13T23:08:50.512Z,8.96
2023-03-13T23:11:18.207Z,9.00
2023-03-13T23:13:44.911Z,8.96
2023-03-13T23:16:12.836Z,8.89
2023-03-13T23:18:40.199Z,8.85
2023-03-13T23:21:12.814Z,8.87
2023-03-13T23:23:39.909Z,8.80
2023-03-13T23:26:09.079Z,8.89
2023-03-13T23:28:36.953Z,8.81
2023-03-13T23:31:15.862Z,8.82
2023-03-13T23:33:43.310Z,8.91
2023-03-13T23:36:13.180Z,8.76
2023-03-13T23:38:40.409Z,8.80
2023-03-13T23:41:08.998Z,8.80
2023-03-13T23:43:35.811Z,8.79
2023-03-13T23:46:02.357Z,8.79
2023-03-13T23:48:28.919Z,8.81
2023-03-13T23:50:55.373Z,8.77
2023-03-13T23:53:22.144Z,8.72
2023-03-13T23:55:57.278Z,8.64
2023-03-13T23:58:23.901Z,8.58
